Country
Station

 

Weather  for  Hunter U. S. Army Airfield  -  United States    United States

  
29 °C (84 °F)
    
 
 

Current METAR for Hunter U. S. Army Airfield is :

KSVN 192056Z AUTO 27019G24KT 10SM FEW060 29/14 A2992 RMK AO2 PK WND 29029/07 SLP135 T02900140 57007 $

 

This is a report for Hunter U. S. Army Airfield - United States.
 
The report was made 30 minutes ago, at 20:56 UTC .
The wind was blowing at a speed of 9.8 meters per second (21.9 miles per hour) with gusts up to 12.3 meters per second (27.6 miles per hour) from west (270°).
 
The temperature was 29 °C (84 °F), with a dew-point at 14 °C (57 °F).
The temperature felt like 28 °C (83 °F).
 
The atmospheric pressure was 1013 hPa (29.92 inHg).
The relative humidity was 39.9%.
 
There were a few clouds at a height of 1829 meters (6000 feet).
 
The overall visibility was 16.1 kilometers (10.0 miles).
 

 
 
 
 

Country :   A   B   C   D   E   F   G   H   I   J   K   L   M   N   O   P   Q   R   S   T   U   V   W   Y   Z

 

Site Info  |  Disclaimer  |  Credits  |  Privacy
Contact us  |  Add to favorites
© 2013-2018 METARs - All rights reserved